createdAt,value
2022-10-16T00:03:56.340Z,29.70
2022-10-16T00:08:59.320Z,32.33
2022-10-16T00:14:04.234Z,29.97
2022-10-16T00:19:06.811Z,28.40
2022-10-16T00:24:10.864Z,30.20
2022-10-16T00:29:13.307Z,29.80
2022-10-16T00:34:15.692Z,29.60
2022-10-16T00:39:18.113Z,28.47
2022-10-16T00:44:53.669Z,26.73
2022-10-16T00:50:17.376Z,25.47
2022-10-16T00:55:20.545Z,26.03
2022-10-16T01:00:26.488Z,26.97
2022-10-16T01:05:54.813Z,26.90
2022-10-16T01:11:11.696Z,24.53
2022-10-16T01:16:26.071Z,24.17
2022-10-16T01:21:37.298Z,24.30
2022-10-16T01:27:06.707Z,24.33
2022-10-16T01:32:41.131Z,25.27
2022-10-16T01:38:05.904Z,24.77
2022-10-16T01:43:13.200Z,25.20
2022-10-16T01:48:19.944Z,23.63
2022-10-16T01:53:25.126Z,23.90
2022-10-16T01:58:35.121Z,24.97
2022-10-16T02:03:41.681Z,24.13
2022-10-16T02:08:45.145Z,22.90
2022-10-16T02:14:00.282Z,22.73
2022-10-16T02:19:02.904Z,23.13
2022-10-16T02:24:15.206Z,21.73
2022-10-16T02:29:23.897Z,23.00
2022-10-16T02:34:28.471Z,22.83
2022-10-16T02:39:31.651Z,22.27
2022-10-16T02:44:34.075Z,22.23
2022-10-16T02:49:36.463Z,23.00
2022-10-16T02:54:39.150Z,22.43
2022-10-16T02:59:41.550Z,24.07
2022-10-16T03:04:43.960Z,23.17
2022-10-16T03:09:46.600Z,24.10
2022-10-16T03:14:49.094Z,23.10
2022-10-16T03:19:52.017Z,24.13
2022-10-16T03:24:54.514Z,23.87
2022-10-16T03:29:56.950Z,24.50
2022-10-16T03:34:59.379Z,23.63
2022-10-16T03:40:02.547Z,26.93
2022-10-16T03:45:05.961Z,25.97
2022-10-16T03:50:08.626Z,26.00
2022-10-16T03:55:11.138Z,24.63
2022-10-16T04:00:14.137Z,24.47
2022-10-16T04:05:16.609Z,22.87
2022-10-16T04:10:19.182Z,21.40
2022-10-16T04:15:21.540Z,22.70
2022-10-16T04:20:27.132Z,20.73
2022-10-16T04:25:29.983Z,21.90
2022-10-16T04:30:32.400Z,20.47
2022-10-16T04:35:34.807Z,21.87
2022-10-16T04:40:37.664Z,20.17
2022-10-16T04:45:40.134Z,21.53
2022-10-16T04:50:42.834Z,19.97
2022-10-16T04:55:45.339Z,19.70
2022-10-16T05:00:47.874Z,19.87
2022-10-16T05:05:50.714Z,20.23
2022-10-16T05:10:53.083Z,19.13
2022-10-16T05:15:55.450Z,20.47
2022-10-16T05:20:58.138Z,19.57
2022-10-16T05:26:00.658Z,18.97
2022-10-16T05:31:10.355Z,22.17
2022-10-16T05:36:13.022Z,20.60
2022-10-16T05:41:15.503Z,19.03
2022-10-16T05:46:18.440Z,20.93
2022-10-16T05:51:20.888Z,20.17
2022-10-16T05:56:23.270Z,18.33
2022-10-16T06:01:26.039Z,17.93
2022-10-16T06:06:30.656Z,19.30
2022-10-16T06:11:34.479Z,18.10
2022-10-16T06:16:37.937Z,19.53
2022-10-16T06:21:40.339Z,18.40
2022-10-16T06:26:42.756Z,20.00
2022-10-16T06:31:45.101Z,17.87
2022-10-16T06:36:47.438Z,19.33
2022-10-16T06:41:50.013Z,16.87
2022-10-16T06:46:52.567Z,19.17
2022-10-16T06:51:54.984Z,23.20
2022-10-16T06:56:57.419Z,20.70
2022-10-16T07:02:00.068Z,23.57
2022-10-16T07:07:05.601Z,22.43
2022-10-16T07:12:10.907Z,22.97
2022-10-16T07:17:13.378Z,22.03
2022-10-16T07:22:15.895Z,22.57
2022-10-16T07:27:18.331Z,21.47
2022-10-16T07:32:20.890Z,19.00
2022-10-16T07:37:23.451Z,21.30
2022-10-16T07:42:26.176Z,18.37
2022-10-16T07:47:28.959Z,17.17
2022-10-16T07:52:32.640Z,17.90
2022-10-16T07:57:35.033Z,15.47
2022-10-16T08:02:37.369Z,15.67
2022-10-16T08:07:39.837Z,15.90
2022-10-16T08:12:42.220Z,15.97
2022-10-16T08:17:44.825Z,15.97
2022-10-16T08:22:47.268Z,16.57
2022-10-16T08:27:49.814Z,17.20
2022-10-16T08:32:52.378Z,14.30
2022-10-16T08:37:54.950Z,13.00
2022-10-16T08:43:24.424Z,13.90
2022-10-16T08:48:41.478Z,12.03
2022-10-16T08:53:45.865Z,11.47
2022-10-16T08:58:49.112Z,12.80
2022-10-16T09:04:19.219Z,11.57
2022-10-16T09:09:40.596Z,10.97
2022-10-16T09:14:51.897Z,11.43
2022-10-16T09:20:19.495Z,11.10
2022-10-16T09:25:22.962Z,10.03
2022-10-16T09:30:30.390Z,10.63
2022-10-16T09:35:38.725Z,9.07
2022-10-16T09:40:43.901Z,9.47
2022-10-16T09:45:57.753Z,9.47
2022-10-16T09:51:03.399Z,10.70
2022-10-16T09:56:10.399Z,10.30
2022-10-16T10:01:16.608Z,8.93
2022-10-16T10:06:21.259Z,11.53
2022-10-16T10:11:52.600Z,8.73
2022-10-16T10:17:10.423Z,11.03
2022-10-16T10:22:47.253Z,9.40
2022-10-16T10:28:04.675Z,11.43
2022-10-16T10:33:28.953Z,10.17
2022-10-16T10:39:07.331Z,8.23
2022-10-16T10:44:33.784Z,8.17
2022-10-16T10:50:00.968Z,8.37
2022-10-16T10:55:20.568Z,8.23
2022-10-16T11:00:55.495Z,8.93
2022-10-16T11:06:25.586Z,9.27
2022-10-16T11:11:50.817Z,9.17
2022-10-16T11:16:59.181Z,9.57
2022-10-16T11:38:45.188Z,9.63
2022-10-16T11:44:06.468Z,6.57
2022-10-16T11:49:25.036Z,7.57
2022-10-16T11:54:46.471Z,8.23
2022-10-16T12:00:01.383Z,8.47
2022-10-16T12:05:18.753Z,9.97
2022-10-16T12:10:27.432Z,6.40
2022-10-16T12:15:58.214Z,6.37
2022-10-16T12:21:05.444Z,6.33
2022-10-16T12:26:07.933Z,6.10
2022-10-16T12:31:13.366Z,6.63
2022-10-16T12:36:28.521Z,7.00
2022-10-16T12:41:32.069Z,6.40
2022-10-16T12:46:36.523Z,6.63
2022-10-16T12:51:39.677Z,9.33
2022-10-16T12:56:57.973Z,10.97
2022-10-16T13:02:33.514Z,9.63
2022-10-16T13:07:52.690Z,5.67
2022-10-16T13:13:00.738Z,9.80
2022-10-16T13:18:11.269Z,11.67
2022-10-16T13:23:26.586Z,6.57
2022-10-16T13:28:33.673Z,6.57
2022-10-16T13:33:38.699Z,7.17
2022-10-16T13:38:41.183Z,7.77
2022-10-16T13:43:50.552Z,10.03
2022-10-16T13:49:12.418Z,10.97
2022-10-16T13:54:14.889Z,11.03
2022-10-16T13:59:39.909Z,12.33
2022-10-16T14:04:43.033Z,10.27
2022-10-16T14:09:50.476Z,8.00
2022-10-16T14:14:55.228Z,10.03
2022-10-16T14:20:02.816Z,9.53
2022-10-16T14:25:20.463Z,7.43
2022-10-16T14:30:23.790Z,8.67
2022-10-16T14:35:32.565Z,7.63
2022-10-16T14:40:37.840Z,8.03
2022-10-16T14:45:42.906Z,4.77
2022-10-16T14:50:46.151Z,6.70
2022-10-16T14:55:49.658Z,8.73
2022-10-16T15:00:52.124Z,9.17
2022-10-16T15:05:54.738Z,8.30
2022-10-16T15:10:57.394Z,6.47
2022-10-16T15:15:59.824Z,8.07
2022-10-16T15:21:02.344Z,8.93
2022-10-16T15:26:04.912Z,7.90
2022-10-16T15:31:07.401Z,7.07
2022-10-16T15:36:09.812Z,9.27
2022-10-16T15:41:12.244Z,7.43
2022-10-16T15:46:15.552Z,6.87
2022-10-16T15:51:19.513Z,6.20
2022-10-16T15:56:23.219Z,8.03
2022-10-16T16:01:26.067Z,7.37
2022-10-16T16:06:29.677Z,7.70
2022-10-16T16:11:33.084Z,7.80
2022-10-16T16:16:38.634Z,7.53
2022-10-16T16:21:41.177Z,7.50
2022-10-16T16:26:44.608Z,8.80
2022-10-16T16:31:48.365Z,8.37
2022-10-16T16:36:51.172Z,9.80
2022-10-16T16:41:53.764Z,10.57
2022-10-16T16:46:56.213Z,11.13
2022-10-16T16:51:58.833Z,10.37
2022-10-16T16:57:01.753Z,10.50
2022-10-16T17:02:05.048Z,10.73
2022-10-16T17:07:07.598Z,18.73
2022-10-16T17:12:10.143Z,17.70
2022-10-16T17:17:13.533Z,22.47
2022-10-16T17:22:16.133Z,24.80
2022-10-16T17:27:19.760Z,35.57
2022-10-16T17:32:23.956Z,26.33
2022-10-16T17:37:26.434Z,32.17
2022-10-16T17:42:29.203Z,32.87
2022-10-16T17:47:31.899Z,35.57
2022-10-16T17:52:34.372Z,37.80
2022-10-16T17:57:36.738Z,40.77
2022-10-16T18:02:42.319Z,42.03
2022-10-16T18:07:44.895Z,47.83
2022-10-16T18:12:47.348Z,42.40
2022-10-16T18:17:49.743Z,44.90
2022-10-16T18:22:52.226Z,53.07
2022-10-16T18:27:54.859Z,52.37
2022-10-16T18:32:57.248Z,45.47
2022-10-16T18:38:00.777Z,45.27
2022-10-16T18:43:03.332Z,44.97
2022-10-16T18:48:06.397Z,44.73
2022-10-16T18:53:08.850Z,47.13
2022-10-16T18:58:11.619Z,42.93
2022-10-16T19:03:14.058Z,44.57
2022-10-16T19:08:16.391Z,43.60
2022-10-16T19:13:18.778Z,48.27
2022-10-16T19:18:26.604Z,45.13
2022-10-16T19:23:29.466Z,50.53
2022-10-16T19:28:32.413Z,46.40
2022-10-16T19:33:35.348Z,37.90
2022-10-16T19:38:38.583Z,38.30
2022-10-16T19:43:42.045Z,41.03
2022-10-16T19:48:45.658Z,45.90
2022-10-16T19:53:53.347Z,43.80
2022-10-16T19:58:57.522Z,45.03
2022-10-16T20:04:00.675Z,38.57
2022-10-16T20:09:04.860Z,40.93
2022-10-16T20:14:08.250Z,43.00
2022-10-16T20:19:10.927Z,40.27
2022-10-16T20:24:13.459Z,51.03
2022-10-16T20:29:16.099Z,54.13
2022-10-16T20:34:18.595Z,43.27
2022-10-16T20:39:21.291Z,47.23
2022-10-16T20:44:23.681Z,45.80
2022-10-16T20:49:40.381Z,44.43
2022-10-16T20:54:46.034Z,51.87
2022-10-16T20:59:49.103Z,49.10
2022-10-16T21:04:51.799Z,42.97
2022-10-16T21:09:58.171Z,44.70
2022-10-16T21:15:14.337Z,43.53
2022-10-16T21:20:17.669Z,42.40
2022-10-16T21:25:20.119Z,38.30
2022-10-16T21:30:22.632Z,34.17
2022-10-16T21:35:25.833Z,34.93
2022-10-16T21:40:29.995Z,31.37
2022-10-16T21:45:34.092Z,31.97
2022-10-16T21:50:36.463Z,29.87
2022-10-16T21:55:38.812Z,30.30
2022-10-16T22:00:41.183Z,32.90
2022-10-16T22:05:43.738Z,32.73
2022-10-16T22:10:46.936Z,28.20
2022-10-16T22:15:52.309Z,28.50
2022-10-16T22:20:54.783Z,26.33
2022-10-16T22:26:02.439Z,24.77
2022-10-16T22:31:07.084Z,24.03
2022-10-16T22:36:12.951Z,22.30
2022-10-16T22:41:15.932Z,22.17
2022-10-16T22:46:21.042Z,21.23
2022-10-16T22:51:25.094Z,22.87
2022-10-16T22:56:27.890Z,22.73
2022-10-16T23:01:40.522Z,21.37
2022-10-16T23:06:42.872Z,21.37
2022-10-16T23:11:45.439Z,20.77
2022-10-16T23:16:48.618Z,23.00
2022-10-16T23:21:51.107Z,21.13
2022-10-16T23:26:53.487Z,20.00
2022-10-16T23:31:56.569Z,20.30
2022-10-16T23:36:59.024Z,20.53
2022-10-16T23:42:01.485Z,20.03
2022-10-16T23:47:04.014Z,20.17
2022-10-16T23:52:07.423Z,19.87
2022-10-16T23:57:09.813Z,19.63
